createdAt,value
2023-01-19T00:00:52.531Z,95907.13
2023-01-19T00:03:19.404Z,95925.09
2023-01-19T00:05:46.378Z,95915.88
2023-01-19T00:08:16.765Z,95931.47
2023-01-19T00:10:45.527Z,95916.91
2023-01-19T00:13:12.692Z,95914.19
2023-01-19T00:15:39.395Z,95914.50
2023-01-19T00:18:06.226Z,95917.50
2023-01-19T00:20:35.528Z,95914.81
2023-01-19T00:23:04.735Z,95927.69
2023-01-19T00:25:31.900Z,95929.28
2023-01-19T00:28:01.362Z,95916.25
2023-01-19T00:30:28.854Z,95927.16
2023-01-19T00:32:56.031Z,95921.13
2023-01-19T00:35:22.951Z,95908.13
2023-01-19T00:37:49.832Z,95903.50
2023-01-19T00:40:17.170Z,95906.72
2023-01-19T00:42:44.617Z,95903.69
2023-01-19T00:45:14.367Z,95905.00
2023-01-19T00:47:41.725Z,95898.81
2023-01-19T00:50:13.560Z,95911.19
2023-01-19T00:52:41.098Z,95890.72
2023-01-19T00:55:09.822Z,95887.31
2023-01-19T00:57:36.897Z,95892.09
2023-01-19T01:00:06.523Z,95895.31
2023-01-19T01:05:09.871Z,95875.91
2023-01-19T01:07:47.029Z,95865.44
2023-01-19T01:10:25.571Z,95859.97
2023-01-19T01:12:55.645Z,95856.06
2023-01-19T01:15:26.560Z,95854.34
2023-01-19T01:17:53.383Z,95860.84
2023-01-19T01:20:23.126Z,95862.56
2023-01-19T01:22:52.848Z,95855.09
2023-01-19T01:25:24.989Z,95858.38
2023-01-19T01:27:52.298Z,95859.91
2023-01-19T01:30:19.666Z,95868.94
2023-01-19T01:32:46.525Z,95842.28
2023-01-19T01:35:14.295Z,95845.69
2023-01-19T01:37:41.261Z,95856.28
2023-01-19T01:40:09.083Z,95854.19
2023-01-19T01:42:35.988Z,95846.22
2023-01-19T01:45:07.796Z,95827.44
2023-01-19T01:47:34.337Z,95832.97
2023-01-19T01:50:22.730Z,95837.66
2023-01-19T01:53:07.983Z,95839.97
2023-01-19T01:55:47.015Z,95826.41
2023-01-19T01:58:16.133Z,95834.81
2023-01-19T02:01:01.655Z,95839.09
2023-01-19T02:03:28.860Z,95829.22
2023-01-19T02:05:59.654Z,95840.91
2023-01-19T02:09:29.380Z,95836.91
2023-01-19T02:12:15.889Z,95815.75
2023-01-19T02:14:42.798Z,95826.34
2023-01-19T02:17:09.444Z,95821.75
2023-01-19T02:19:42.862Z,95824.75
2023-01-19T02:22:41.314Z,95815.97
2023-01-19T02:25:08.492Z,95815.19
2023-01-19T02:27:37.063Z,95809.00
2023-01-19T02:30:04.905Z,95810.09
2023-01-19T02:32:31.591Z,95817.38
2023-01-19T02:34:58.652Z,95815.28
2023-01-19T02:37:28.397Z,95813.69
2023-01-19T02:39:59.372Z,95817.47
2023-01-19T02:42:35.168Z,95810.50
2023-01-19T02:45:06.770Z,95812.41
2023-01-19T02:47:43.540Z,95818.59
2023-01-19T02:50:50.635Z,95826.16
2023-01-19T02:53:47.979Z,95819.56
2023-01-19T02:56:41.894Z,95832.63
2023-01-19T02:59:19.089Z,95835.25
2023-01-19T03:02:24.098Z,95836.72
2023-01-19T03:05:20.308Z,95838.72
2023-01-19T03:07:46.846Z,95836.72
2023-01-19T03:10:39.727Z,95842.47
2023-01-19T03:13:13.568Z,95846.06
2023-01-19T03:15:40.188Z,95856.03
2023-01-19T03:18:10.578Z,95860.91
2023-01-19T03:20:40.251Z,95849.66
2023-01-19T03:23:11.183Z,95851.53
2023-01-19T03:25:42.992Z,95837.88
2023-01-19T03:28:09.916Z,95843.97
2023-01-19T03:30:42.435Z,95843.97
2023-01-19T03:33:16.060Z,95833.19
2023-01-19T03:35:49.077Z,95829.03
2023-01-19T03:38:19.129Z,95823.38
2023-01-19T03:40:47.539Z,95835.91
2023-01-19T03:43:16.778Z,95825.56
2023-01-19T03:45:44.480Z,95823.34
2023-01-19T03:48:11.234Z,95827.28
2023-01-19T03:50:38.165Z,95832.25
2023-01-19T03:53:10.704Z,95844.81
2023-01-19T03:55:40.408Z,95850.63
2023-01-19T03:58:07.418Z,95843.94
2023-01-19T04:00:36.717Z,95849.59
2023-01-19T04:03:05.287Z,95841.91
2023-01-19T04:05:33.610Z,95840.09
2023-01-19T04:08:00.896Z,95844.28
2023-01-19T04:10:27.476Z,95847.47
2023-01-19T04:13:01.749Z,95849.34
2023-01-19T04:15:29.860Z,95856.56
2023-01-19T04:18:01.163Z,95859.72
2023-01-19T04:20:28.517Z,95865.63
2023-01-19T04:22:59.405Z,95867.72
2023-01-19T04:25:26.664Z,95847.56
2023-01-19T04:27:55.035Z,95844.25
2023-01-19T04:30:22.757Z,95848.75
2023-01-19T04:32:49.797Z,95841.66
2023-01-19T04:35:17.078Z,95857.75
2023-01-19T04:37:45.183Z,95851.91
2023-01-19T04:40:12.215Z,95852.78
2023-01-19T04:42:39.016Z,95867.13
2023-01-19T04:45:06.131Z,95866.25
2023-01-19T04:47:32.988Z,95847.66
2023-01-19T04:49:59.639Z,95858.53
2023-01-19T04:52:35.267Z,95852.00
2023-01-19T04:55:03.517Z,95857.69
2023-01-19T04:57:30.407Z,95858.53
2023-01-19T04:59:57.962Z,95860.09
2023-01-19T05:02:25.395Z,95858.53
2023-01-19T05:04:52.199Z,95860.09
2023-01-19T05:07:18.978Z,95866.28
2023-01-19T05:09:45.761Z,95864.91
2023-01-19T05:12:12.356Z,95862.06
2023-01-19T05:14:39.239Z,95863.22
2023-01-19T05:17:05.940Z,95878.00
2023-01-19T05:19:32.736Z,95874.22
2023-01-19T05:21:59.503Z,95887.38
2023-01-19T05:24:26.347Z,95866.81
2023-01-19T05:26:52.955Z,95865.97
2023-01-19T05:29:19.679Z,95889.19
2023-01-19T05:31:46.506Z,95889.47
2023-01-19T05:34:14.602Z,95880.75
2023-01-19T05:36:42.626Z,95878.84
2023-01-19T05:39:09.491Z,95883.47
2023-01-19T05:41:36.647Z,95893.97
2023-01-19T05:44:03.506Z,95897.75
2023-01-19T05:46:30.305Z,95894.06
2023-01-19T05:48:57.069Z,95895.97
2023-01-19T05:51:23.823Z,95897.28
2023-01-19T05:53:50.445Z,95903.94
2023-01-19T05:56:17.012Z,95922.53
2023-01-19T05:58:44.007Z,95908.72
2023-01-19T06:01:10.976Z,95911.13
2023-01-19T06:03:39.300Z,95919.72
2023-01-19T06:06:06.199Z,95912.72
2023-01-19T06:08:33.017Z,95914.31
2023-01-19T06:10:59.620Z,95913.88
2023-01-19T06:13:26.809Z,95901.25
2023-01-19T06:16:01.150Z,95899.56
2023-01-19T06:18:29.164Z,95904.09
2023-01-19T06:20:58.856Z,95901.94
2023-01-19T06:23:31.053Z,95891.78
2023-01-19T06:25:58.615Z,95882.91
2023-01-19T06:28:25.468Z,95892.47
2023-01-19T10:16:52.264Z,95911.63
2023-01-19T10:19:36.872Z,95910.41
2023-01-19T10:22:28.003Z,95905.63
2023-01-19T10:25:01.765Z,95903.00
2023-01-19T10:27:41.250Z,95894.97
2023-01-19T10:30:15.355Z,95895.84
2023-01-19T10:32:49.122Z,95902.88
2023-01-19T10:35:24.830Z,95907.31
2023-01-19T10:38:02.953Z,95899.94
2023-01-19T10:40:59.917Z,95890.19
2023-01-19T10:43:43.971Z,95892.56
2023-01-19T10:46:21.567Z,95905.38
2023-01-19T10:48:57.112Z,95905.38
2023-01-19T10:51:24.137Z,95895.19
2023-01-19T10:54:20.084Z,95899.47
2023-01-19T10:56:53.823Z,95897.00
2023-01-19T10:59:38.087Z,95896.53
2023-01-19T11:02:26.692Z,95897.22
2023-01-19T11:05:03.141Z,95893.28
2023-01-19T11:07:33.414Z,95898.59
2023-01-19T11:10:22.152Z,95884.88
2023-01-19T11:13:07.462Z,95880.59
2023-01-19T11:16:04.005Z,95864.16
2023-01-19T11:18:40.889Z,95864.16
2023-01-19T11:21:23.596Z,95889.97
2023-01-19T11:24:00.843Z,95892.03
2023-01-19T11:26:39.971Z,95890.88
2023-01-19T11:29:23.902Z,95902.59
2023-01-19T11:31:52.620Z,95909.13
2023-01-19T11:34:45.917Z,95906.41
2023-01-19T11:37:25.951Z,95899.41
2023-01-19T11:40:05.833Z,95899.41
2023-01-19T11:42:41.067Z,95904.25
2023-01-19T11:45:21.843Z,95911.75
2023-01-19T11:48:03.459Z,95912.09
2023-01-19T11:50:41.025Z,95906.97
2023-01-19T11:53:31.044Z,95910.97
2023-01-19T11:56:06.553Z,95911.06
2023-01-19T11:58:54.113Z,95918.56
2023-01-19T12:01:43.805Z,95910.03
2023-01-19T12:04:30.563Z,95910.94
2023-01-19T12:07:06.822Z,95917.63
2023-01-19T12:09:57.931Z,95915.50
2023-01-19T12:12:32.244Z,95916.03
2023-01-19T12:15:31.989Z,95902.53
2023-01-19T12:18:10.375Z,95901.97
2023-01-19T12:20:46.033Z,95915.00
2023-01-19T12:23:36.843Z,95907.72
2023-01-19T12:26:29.992Z,95913.38
2023-01-19T12:29:01.548Z,95912.69
2023-01-19T12:31:28.738Z,95917.53
2023-01-19T12:34:01.919Z,95923.91
2023-01-19T12:36:44.888Z,95932.50
2023-01-19T12:39:24.133Z,95936.81
2023-01-19T12:42:07.857Z,95924.69
2023-01-19T12:44:42.021Z,95927.06
2023-01-19T12:47:19.848Z,95931.81
2023-01-19T12:49:57.173Z,95945.91
2023-01-19T12:52:37.828Z,95950.53
2023-01-19T12:55:13.431Z,95958.28
2023-01-19T12:58:07.805Z,95966.78
2023-01-19T13:00:50.052Z,95985.44
2023-01-19T13:03:16.968Z,96021.06
2023-01-19T13:05:49.775Z,96034.16
2023-01-19T13:08:19.020Z,96040.03
2023-01-19T13:11:09.800Z,96053.66
2023-01-19T13:13:37.960Z,96033.16
2023-01-19T13:16:33.741Z,96035.75
2023-01-19T13:19:06.789Z,96044.28
2023-01-19T13:21:51.809Z,96047.28
2023-01-19T13:24:23.486Z,96048.84
2023-01-19T13:26:50.288Z,96055.75
2023-01-19T13:29:32.938Z,96068.09
2023-01-19T13:32:11.839Z,96066.72
2023-01-19T13:35:00.590Z,96085.88
2023-01-19T13:37:52.841Z,96104.56
2023-01-19T13:40:24.799Z,96104.28
2023-01-19T13:43:00.742Z,96112.09
2023-01-19T13:45:45.026Z,96125.03
2023-01-19T13:48:17.649Z,96131.25
2023-01-19T13:51:07.196Z,96144.97
2023-01-19T13:53:34.545Z,96141.75
2023-01-19T13:56:27.015Z,96157.53
2023-01-19T13:59:02.263Z,96174.53
2023-01-19T14:01:37.112Z,96167.03
2023-01-19T14:04:04.599Z,96168.44
2023-01-19T14:06:45.849Z,96157.41
2023-01-19T14:09:20.347Z,96165.31
2023-01-19T14:12:11.787Z,96157.34
2023-01-19T14:14:55.732Z,96138.38
2023-01-19T14:17:34.999Z,96149.97
2023-01-19T14:20:08.732Z,96158.22
2023-01-19T14:22:50.822Z,96151.84
2023-01-19T14:25:45.665Z,96150.25
2023-01-19T14:28:28.720Z,96159.03
2023-01-19T14:31:04.790Z,96155.84
2023-01-19T14:33:36.769Z,96156.34
2023-01-19T14:36:22.690Z,96166.84
2023-01-19T14:39:04.974Z,96162.22
2023-01-19T14:41:52.717Z,96172.88
2023-01-19T14:44:29.750Z,96182.91
2023-01-19T14:46:58.182Z,96181.88
2023-01-19T14:49:33.730Z,96201.25
2023-01-19T14:52:03.575Z,96177.13
2023-01-19T14:54:42.880Z,96201.81
2023-01-19T14:57:15.942Z,96201.66
2023-01-19T14:59:48.565Z,96200.34
2023-01-19T15:02:15.742Z,96201.13
2023-01-19T15:04:42.459Z,96180.31
2023-01-19T15:07:18.050Z,96166.91
2023-01-19T15:09:46.324Z,96176.63
2023-01-19T15:12:17.348Z,96176.13
2023-01-19T15:14:45.376Z,96183.94
2023-01-19T15:17:27.054Z,96181.38
2023-01-19T15:19:57.783Z,96189.16
2023-01-19T15:22:27.138Z,96197.59
2023-01-19T15:24:57.652Z,96209.81
2023-01-19T15:27:24.430Z,96213.88
2023-01-19T15:29:51.521Z,96223.94
2023-01-19T15:32:18.185Z,96223.94
2023-01-19T15:34:44.909Z,96232.38
2023-01-19T15:37:11.998Z,96222.03
2023-01-19T15:39:40.071Z,96263.81
2023-01-19T15:42:13.234Z,96261.72
2023-01-19T15:44:40.073Z,96284.75
2023-01-19T15:47:06.734Z,96287.25
2023-01-19T15:49:33.465Z,96285.34
2023-01-19T15:52:00.210Z,96285.94
2023-01-19T15:54:26.893Z,96285.25
2023-01-19T15:56:53.694Z,96279.06
2023-01-19T15:59:20.397Z,96268.94
2023-01-19T16:01:47.143Z,96271.66
2023-01-19T16:04:14.763Z,96267.97
2023-01-19T16:06:42.987Z,96261.16
2023-01-19T16:09:11.670Z,96252.59
2023-01-19T16:11:38.595Z,96258.19
2023-01-19T16:14:05.333Z,96256.28
2023-01-19T16:16:32.127Z,96264.19
2023-01-19T16:18:59.134Z,96279.91
2023-01-19T16:21:26.027Z,96268.91
2023-01-19T16:23:52.958Z,96280.00
2023-01-19T16:26:29.158Z,96297.13
2023-01-19T16:28:57.597Z,96301.22
2023-01-19T16:31:24.303Z,96307.00
2023-01-19T16:33:51.134Z,96317.38
2023-01-19T16:36:27.269Z,96332.19
2023-01-19T16:38:55.309Z,96325.22
2023-01-19T16:41:21.994Z,96315.00
2023-01-19T16:43:53.102Z,96308.59
2023-01-19T16:46:34.102Z,96309.59
2023-01-19T16:49:06.078Z,96298.59
2023-01-19T16:51:33.334Z,96297.00
2023-01-19T16:54:00.225Z,96289.50
2023-01-19T16:56:27.173Z,96299.56
2023-01-19T16:58:55.937Z,96299.56
2023-01-19T17:01:27.382Z,96284.00
2023-01-19T17:03:55.028Z,96282.97
2023-01-19T17:06:23.103Z,96255.88
2023-01-19T17:08:51.129Z,96264.56
2023-01-19T17:11:26.723Z,96268.16
2023-01-19T17:13:55.791Z,96263.34
2023-01-19T17:16:24.212Z,96236.47
2023-01-19T17:18:51.181Z,96197.78
2023-01-19T17:21:19.666Z,96218.28
2023-01-19T17:23:48.081Z,96226.16
2023-01-19T17:26:15.886Z,96219.47
2023-01-19T17:28:43.153Z,96276.78
2023-01-19T17:31:18.523Z,96269.88
2023-01-19T17:33:48.341Z,96283.34
2023-01-19T17:36:22.431Z,96292.31
2023-01-19T17:38:50.446Z,96290.53
2023-01-19T17:41:28.862Z,96300.69
2023-01-19T17:43:56.736Z,96287.72
2023-01-19T17:46:26.432Z,96277.47
2023-01-19T17:49:02.353Z,96265.25
2023-01-19T17:51:30.347Z,96259.88
2023-01-19T17:53:57.918Z,96269.56
2023-01-19T17:56:29.579Z,96290.84
2023-01-19T17:58:57.766Z,96302.44
2023-01-19T18:01:27.793Z,96277.84
2023-01-19T18:03:55.168Z,96271.66
2023-01-19T18:06:22.027Z,96260.59
2023-01-19T18:08:49.620Z,96268.19
2023-01-19T18:11:18.608Z,96273.78
2023-01-19T18:13:48.250Z,96277.28
2023-01-19T18:16:22.380Z,96270.81
2023-01-19T18:18:49.907Z,96275.09
2023-01-19T18:21:20.296Z,96290.47
2023-01-19T18:23:47.547Z,96304.78
2023-01-19T18:26:17.104Z,96310.97
2023-01-19T18:28:43.861Z,96309.06
2023-01-19T18:31:13.070Z,96298.56
2023-01-19T18:33:40.884Z,96283.97
2023-01-19T18:36:08.517Z,96288.06
2023-01-19T18:38:36.415Z,96304.19
2023-01-19T18:41:04.785Z,96285.31
2023-01-19T18:43:32.908Z,96268.53
2023-01-19T18:46:00.177Z,96225.66
2023-01-19T18:48:26.861Z,96263.41
2023-01-19T18:50:53.854Z,96262.63
2023-01-19T18:53:20.910Z,96264.91
2023-01-19T18:55:52.168Z,96300.47
2023-01-19T18:58:20.058Z,96336.63
2023-01-19T19:00:47.246Z,96353.91
2023-01-19T19:03:13.877Z,96356.59
2023-01-19T19:05:40.859Z,96364.16
2023-01-19T19:08:08.240Z,96371.19
2023-01-19T19:10:35.073Z,96365.47
2023-01-19T19:13:02.583Z,96357.41
2023-01-19T19:15:29.530Z,96356.91
2023-01-19T19:17:56.141Z,96355.50
2023-01-19T19:20:23.487Z,96346.34
2023-01-19T19:22:50.407Z,96350.91
2023-01-19T19:25:17.584Z,96359.81
2023-01-19T19:27:47.840Z,96350.09
2023-01-19T19:30:15.071Z,96352.00
2023-01-19T19:32:42.294Z,96354.22
2023-01-19T19:35:09.513Z,96354.84
2023-01-19T19:37:36.408Z,96358.66
2023-01-19T19:40:03.902Z,96375.03
2023-01-19T19:42:30.748Z,96366.94
2023-01-19T19:44:57.498Z,96357.53
2023-01-19T19:47:24.561Z,96360.75
2023-01-19T19:49:51.293Z,96361.88
2023-01-19T19:52:18.204Z,96372.34
2023-01-19T19:54:45.250Z,96368.06
2023-01-19T19:57:12.395Z,96364.34
2023-01-19T19:59:39.475Z,96358.66
2023-01-19T20:02:06.141Z,96354.13
2023-01-19T20:04:33.262Z,96345.59
2023-01-19T20:07:00.244Z,96343.19
2023-01-19T20:09:26.931Z,96342.16
2023-01-19T20:11:53.795Z,96339.88
2023-01-19T20:14:22.642Z,96361.91
2023-01-19T20:16:49.740Z,96346.47
2023-01-19T20:19:17.913Z,96364.69
2023-01-19T20:21:44.733Z,96359.56
2023-01-19T20:24:18.583Z,96352.91
2023-01-19T20:26:49.047Z,96361.00
2023-01-19T20:29:16.124Z,96357.81
2023-01-19T20:31:46.514Z,96361.56
2023-01-19T20:34:17.424Z,96349.34
2023-01-19T20:36:49.468Z,96368.06
2023-01-19T20:39:19.676Z,96367.28
2023-01-19T20:41:46.645Z,96361.09
2023-01-19T20:44:16.166Z,96368.38
2023-01-19T20:46:44.073Z,96367.03
2023-01-19T20:49:10.834Z,96363.81
2023-01-19T20:51:41.645Z,96360.63
2023-01-19T20:54:08.950Z,96356.38
2023-01-19T20:56:36.380Z,96364.78
2023-01-19T20:59:03.142Z,96365.03
2023-01-19T21:01:30.354Z,96355.31
2023-01-19T21:03:57.128Z,96352.09
2023-01-19T21:06:24.991Z,96360.19
2023-01-19T21:08:52.390Z,96370.88
2023-01-19T21:11:21.111Z,96371.41
2023-01-19T21:13:49.133Z,96375.44
2023-01-19T21:16:16.486Z,96376.72
2023-01-19T21:18:43.575Z,96377.81
2023-01-19T21:21:20.858Z,96377.03
2023-01-19T21:23:51.866Z,96376.00
2023-01-19T21:26:18.486Z,96368.78
2023-01-19T21:28:45.325Z,96374.19
2023-01-19T21:31:14.249Z,96377.16
2023-01-19T21:33:42.739Z,96380.16
2023-01-19T21:36:11.143Z,96383.41
2023-01-19T21:38:38.784Z,96388.78
2023-01-19T21:41:07.719Z,96402.75
2023-01-19T21:43:36.954Z,96389.91
2023-01-19T21:46:17.179Z,96372.91
2023-01-19T21:48:43.972Z,96375.59
2023-01-19T21:51:10.563Z,96380.19
2023-01-19T21:53:37.495Z,96377.50
2023-01-19T21:56:08.411Z,96376.69
2023-01-19T21:58:35.767Z,96387.25
2023-01-19T22:01:11.011Z,96377.88
2023-01-19T22:03:38.007Z,96390.00
2023-01-19T22:06:06.611Z,96389.78
2023-01-19T22:08:34.175Z,96372.59
2023-01-19T22:11:09.453Z,96364.78
2023-01-19T22:13:38.743Z,96365.06
2023-01-19T22:16:12.032Z,96370.53
2023-01-19T22:18:40.821Z,96370.53
2023-01-19T22:21:12.654Z,96368.69
2023-01-19T22:23:40.043Z,96371.91
2023-01-19T22:26:08.342Z,96373.78
2023-01-19T22:28:35.611Z,96354.19
2023-01-19T22:31:10.539Z,96347.69
2023-01-19T22:33:37.348Z,96355.50
2023-01-19T22:36:22.992Z,96356.31
2023-01-19T22:38:55.209Z,96350.13
2023-01-19T22:41:23.801Z,96337.47
2023-01-19T22:43:53.056Z,96329.38
2023-01-19T22:46:21.176Z,96338.25
2023-01-19T22:48:49.448Z,96334.78
2023-01-19T22:51:17.310Z,96341.75
2023-01-19T22:53:44.109Z,96339.34
2023-01-19T22:56:16.815Z,96324.88
2023-01-19T22:58:44.813Z,96333.16
2023-01-19T23:01:13.947Z,96322.41
2023-01-19T23:03:41.516Z,96319.72
2023-01-19T23:06:22.490Z,96327.78
2023-01-19T23:08:49.593Z,96327.78
2023-01-19T23:11:22.549Z,96330.75
2023-01-19T23:13:50.068Z,96333.16
2023-01-19T23:16:18.203Z,96334.53
2023-01-19T23:18:46.005Z,96328.84
2023-01-19T23:21:18.717Z,96332.66
2023-01-19T23:23:46.168Z,96343.72
2023-01-19T23:26:16.018Z,96337.53
2023-01-19T23:28:43.907Z,96345.06
2023-01-19T23:31:25.088Z,96349.97
2023-01-19T23:33:59.879Z,96342.94
2023-01-19T23:36:29.445Z,96346.22
2023-01-19T23:39:01.287Z,96348.91
2023-01-19T23:41:31.204Z,96357.56
2023-01-19T23:43:58.254Z,96360.84
2023-01-19T23:46:25.148Z,96360.06
2023-01-19T23:48:52.194Z,96352.00
2023-01-19T23:51:28.433Z,96357.16
2023-01-19T23:53:56.149Z,96354.75
2023-01-19T23:56:29.115Z,96347.47
2023-01-19T23:58:58.653Z,96346.91
